Time;durP1;ratioP1;P1;durP2;ratioP2;P2;SDS_P1;SDS_P2;PMS_P1;PMS_P2;Temp;Humidity;BMP_temperature;BMP_pressure;BME280_temperature;BME280_humidity;BME280_pressure;Samples;Min_cycle;Max_cycle;Signal;HPM_P1;HPM_P2
2023/05/16 00:00:38;;;;;;;16.80;4.23;;;;;;;;;;5048469;28;20041;-60
2023/05/16 00:03:05;;;;;;;25.33;4.40;;;;;;;;;;5048166;28;20070;-60
2023/05/16 00:05:31;;;;;;;18.83;3.83;;;;;;;;;;5048120;28;20043;-61
2023/05/16 00:07:57;;;;;;;27.23;3.97;;;;;;;;;;5048039;28;20095;-60
2023/05/16 00:10:23;;;;;;;27.20;5.27;;;;;;;;;;5048016;28;20049;-60
2023/05/16 00:12:52;;;;;;;24.87;5.23;;;;;;;;;;5048179;28;20080;-60
2023/05/16 00:15:19;;;;;;;18.80;4.30;;;;;;;;;;5047492;28;20862;-60
2023/05/16 00:17:45;;;;;;;17.63;3.47;;;;;;;;;;5047804;28;20125;-60
2023/05/16 00:20:13;;;;;;;22.00;4.23;;;;;;;;;;5047377;28;20045;-62
2023/05/16 00:22:39;;;;;;;24.30;4.63;;;;;;;;;;5047971;28;20976;-61
2023/05/16 00:25:05;;;;;;;27.90;4.47;;;;;;;;;;5048284;28;20051;-60
2023/05/16 00:27:33;;;;;;;20.90;4.27;;;;;;;;;;5049450;28;20148;-60
2023/05/16 00:30:00;;;;;;;23.17;3.67;;;;;;;;;;5051494;28;20139;-60
2023/05/16 00:32:26;;;;;;;41.13;5.47;;;;;;;;;;5051848;28;20056;-60
2023/05/16 00:34:52;;;;;;;24.80;5.00;;;;;;;;;;5051689;28;20418;-60
2023/05/16 00:37:18;;;;;;;28.43;3.60;;;;;;;;;;5051452;28;20711;-60
2023/05/16 00:39:44;;;;;;;28.87;4.13;;;;;;;;;;5051651;28;20049;-60
2023/05/16 00:42:10;;;;;;;23.83;4.70;;;;;;;;;;5051083;28;20492;-60
2023/05/16 00:44:36;;;;;;;22.40;4.60;;;;;;;;;;5051568;28;20079;-60
2023/05/16 00:47:03;;;;;;;26.27;4.57;;;;;;;;;;5051553;28;20070;-60
2023/05/16 00:49:29;;;;;;;26.00;5.70;;;;;;;;;;5051520;28;20114;-61
2023/05/16 00:51:56;;;;;;;20.57;4.23;;;;;;;;;;5051150;28;20495;-60
2023/05/16 00:54:25;;;;;;;25.57;5.40;;;;;;;;;;5051045;28;20069;-60
2023/05/16 00:56:51;;;;;;;22.90;4.23;;;;;;;;;;5051157;28;20432;-60
2023/05/16 00:59:18;;;;;;;25.20;5.03;;;;;;;;;;5051304;28;20565;-60
2023/05/16 01:01:46;;;;;;;33.63;6.07;;;;;;;;;;5050753;28;20048;-60
2023/05/16 01:04:13;;;;;;;27.30;4.63;;;;;;;;;;5051283;28;20056;-60
2023/05/16 01:06:39;;;;;;;24.07;4.90;;;;;;;;;;5051465;28;20191;-61
2023/05/16 01:09:06;;;;;;;23.07;6.53;;;;;;;;;;5050737;28;20127;-60
2023/05/16 01:11:39;;;;;;;24.50;5.33;;;;;;;;;;5051040;28;20049;-60
2023/05/16 01:14:17;;;;;;;31.77;5.03;;;;;;;;;;5050808;28;20041;-60
2023/05/16 01:16:47;;;;;;;21.40;4.80;;;;;;;;;;5050833;28;20160;-60
2023/05/16 01:19:21;;;;;;;27.10;5.30;;;;;;;;;;5050550;28;20052;-60
2023/05/16 01:22:14;;;;;;;16.48;3.80;;;;;;;;;;5050833;28;20044;-60
2023/05/16 01:24:58;;;;;;;28.38;4.80;;;;;;;;;;5040977;28;20048;-60
2023/05/16 01:27:26;;;;;;;30.00;6.60;;;;;;;;;;5050430;28;20794;-60
2023/05/16 01:29:55;;;;;;;32.07;4.70;;;;;;;;;;5050803;28;20446;-60
2023/05/16 01:32:24;;;;;;;17.23;4.60;;;;;;;;;;5050653;28;20041;-60
2023/05/16 01:34:51;;;;;;;25.20;4.60;;;;;;;;;;5050450;28;20053;-60
2023/05/16 01:37:19;;;;;;;30.57;4.30;;;;;;;;;;5050784;28;20049;-61
2023/05/16 01:39:49;;;;;;;27.83;4.40;;;;;;;;;;5049261;28;20076;-60
2023/05/16 01:42:16;;;;;;;23.20;4.60;;;;;;;;;;5050463;28;20060;-61
2023/05/16 01:44:53;;;;;;;30.27;5.73;;;;;;;;;;5050603;28;20098;-60
2023/05/16 01:47:20;;;;;;;20.47;4.60;;;;;;;;;;5050221;28;20056;-61
2023/05/16 01:50:05;;;;;;;27.40;5.23;;;;;;;;;;5050727;28;20056;-61
2023/05/16 01:52:42;;;;;;;23.23;6.10;;;;;;;;;;5050339;28;20130;-60
2023/05/16 01:55:11;;;;;;;21.07;4.00;;;;;;;;;;5050719;28;20495;-61
2023/05/16 01:57:38;;;;;;;35.00;5.23;;;;;;;;;;5050984;28;20124;-62
2023/05/16 02:00:04;;;;;;;31.97;4.23;;;;;;;;;;5050894;28;20056;-60
2023/05/16 02:02:31;;;;;;;25.77;4.77;;;;;;;;;;5050427;28;20051;-60
2023/05/16 02:04:57;;;;;;;28.07;4.50;;;;;;;;;;5051328;28;20126;-61
2023/05/16 02:07:23;;;;;;;20.13;4.37;;;;;;;;;;5050023;28;20071;-61
2023/05/16 02:09:49;;;;;;;27.13;3.93;;;;;;;;;;5050528;28;20837;-60
2023/05/16 02:12:15;;;;;;;23.93;4.37;;;;;;;;;;5050861;28;20075;-61
2023/05/16 02:14:41;;;;;;;21.37;5.27;;;;;;;;;;5050712;28;20128;-61
2023/05/16 02:17:07;;;;;;;32.40;5.03;;;;;;;;;;5050431;28;20052;-62
2023/05/16 02:19:34;;;;;;;25.83;3.90;;;;;;;;;;5050350;28;20041;-62
2023/05/16 02:22:00;;;;;;;22.50;4.20;;;;;;;;;;5050621;28;20487;-62
2023/05/16 02:24:26;;;;;;;25.63;4.63;;;;;;;;;;5050379;28;20092;-61
2023/05/16 02:26:52;;;;;;;20.57;3.97;;;;;;;;;;5049895;28;20048;-62
2023/05/16 02:29:18;;;;;;;21.13;4.53;;;;;;;;;;5050044;28;20049;-62
2023/05/16 02:31:44;;;;;;;24.07;4.10;;;;;;;;;;5049966;28;20053;-59
2023/05/16 02:34:10;;;;;;;27.50;5.90;;;;;;;;;;5049907;28;20081;-59
2023/05/16 02:36:36;;;;;;;23.03;4.37;;;;;;;;;;5050910;28;20072;-61
2023/05/16 02:39:07;;;;;;;29.93;6.20;;;;;;;;;;5050255;28;20048;-61
2023/05/16 02:41:33;;;;;;;39.13;4.57;;;;;;;;;;5049921;28;20053;-61
2023/05/16 02:43:59;;;;;;;28.07;4.43;;;;;;;;;;5050378;28;20135;-61
2023/05/16 02:46:30;;;;;;;24.67;5.27;;;;;;;;;;5050116;28;20044;-59
2023/05/16 02:48:56;;;;;;;26.70;5.20;;;;;;;;;;5050059;28;20041;-59
2023/05/16 02:51:23;;;;;;;25.10;5.17;;;;;;;;;;5049671;28;20045;-59
2023/05/16 02:53:49;;;;;;;28.57;4.73;;;;;;;;;;5049851;28;20052;-59
2023/05/16 02:56:15;;;;;;;32.50;5.63;;;;;;;;;;5050182;28;20136;-62
2023/05/16 02:58:41;;;;;;;19.00;4.13;;;;;;;;;;5050274;28;20431;-62
2023/05/16 03:01:07;;;;;;;19.37;4.73;;;;;;;;;;5049946;28;20132;-61
2023/05/16 03:03:34;;;;;;;16.37;4.00;;;;;;;;;;5049258;28;20093;-59
2023/05/16 03:06:00;;;;;;;28.10;4.37;;;;;;;;;;5048549;28;20507;-59
2023/05/16 03:08:26;;;;;;;20.90;4.53;;;;;;;;;;5049160;28;20049;-59
2023/05/16 03:10:52;;;;;;;16.77;4.63;;;;;;;;;;5049595;28;20527;-59
2023/05/16 03:13:18;;;;;;;29.33;4.97;;;;;;;;;;5048409;28;20136;-59
2023/05/16 03:15:45;;;;;;;28.27;5.83;;;;;;;;;;5048692;28;20074;-59
2023/05/16 03:18:11;;;;;;;28.97;4.53;;;;;;;;;;5048811;28;20037;-59
2023/05/16 03:20:38;;;;;;;26.07;5.00;;;;;;;;;;5048511;28;20121;-60
2023/05/16 03:23:07;;;;;;;29.37;5.20;;;;;;;;;;5048506;28;20040;-60
2023/05/16 03:25:35;;;;;;;30.67;4.33;;;;;;;;;;5048685;28;20404;-59
2023/05/16 03:28:01;;;;;;;23.73;4.87;;;;;;;;;;5047011;28;20049;-60
2023/05/16 03:30:27;;;;;;;23.03;5.07;;;;;;;;;;5048642;28;20190;-60
2023/05/16 03:32:53;;;;;;;22.00;4.23;;;;;;;;;;5048069;28;20057;-60
2023/05/16 03:35:19;;;;;;;19.03;4.70;;;;;;;;;;5048554;28;20052;-60
2023/05/16 03:37:45;;;;;;;18.63;5.37;;;;;;;;;;5048479;28;20072;-60
2023/05/16 03:40:11;;;;;;;33.00;6.57;;;;;;;;;;5048348;28;20407;-60
2023/05/16 03:42:37;;;;;;;27.40;5.90;;;;;;;;;;5048290;28;20045;-60
2023/05/16 03:45:07;;;;;;;24.40;4.80;;;;;;;;;;5048560;28;20521;-60
2023/05/16 03:47:33;;;;;;;23.27;5.93;;;;;;;;;;5048645;28;20045;-60
2023/05/16 03:49:59;;;;;;;33.37;5.87;;;;;;;;;;5048087;28;20090;-60
2023/05/16 03:52:25;;;;;;;26.93;4.77;;;;;;;;;;5047907;28;20052;-60
2023/05/16 03:54:51;;;;;;;20.33;5.77;;;;;;;;;;5047744;28;20418;-59
2023/05/16 03:57:17;;;;;;;25.40;4.63;;;;;;;;;;5048027;28;20052;-61
2023/05/16 03:59:43;;;;;;;29.80;6.17;;;;;;;;;;5047566;28;20045;-60
2023/05/16 04:02:09;;;;;;;18.23;5.40;;;;;;;;;;5048349;28;20049;-60
2023/05/16 04:04:35;;;;;;;27.23;5.77;;;;;;;;;;5051949;28;20068;-60
2023/05/16 04:07:02;;;;;;;24.67;5.53;;;;;;;;;;5051695;28;20053;-60
2023/05/16 04:09:28;;;;;;;19.53;5.67;;;;;;;;;;5051034;28;20133;-60
2023/05/16 04:12:00;;;;;;;26.00;5.10;;;;;;;;;;5052110;28;20045;-60
2023/05/16 04:14:26;;;;;;;28.63;5.70;;;;;;;;;;5051712;28;20124;-60
2023/05/16 04:16:52;;;;;;;32.87;6.20;;;;;;;;;;5051664;28;20045;-60
2023/05/16 04:19:18;;;;;;;28.00;6.30;;;;;;;;;;5051383;28;20049;-60
2023/05/16 04:21:44;;;;;;;26.07;5.97;;;;;;;;;;5051593;28;20053;-60
2023/05/16 04:24:10;;;;;;;26.93;6.17;;;;;;;;;;5051617;28;20052;-60
2023/05/16 04:26:36;;;;;;;28.87;5.57;;;;;;;;;;5051879;28;20725;-60
2023/05/16 04:29:03;;;;;;;19.50;5.23;;;;;;;;;;5051054;28;20127;-60
2023/05/16 04:31:29;;;;;;;13.63;5.87;;;;;;;;;;5050936;28;20087;-60
2023/05/16 04:33:56;;;;;;;32.90;7.10;;;;;;;;;;5051191;28;20456;-60
2023/05/16 04:36:22;;;;;;;20.00;5.37;;;;;;;;;;5051321;28;20045;-60
2023/05/16 04:38:48;;;;;;;25.83;5.13;;;;;;;;;;5051228;28;20481;-60
2023/05/16 04:41:15;;;;;;;17.37;5.20;;;;;;;;;;5051259;28;20104;-60
2023/05/16 04:43:41;;;;;;;19.27;4.57;;;;;;;;;;5051203;28;20100;-60
2023/05/16 04:46:08;;;;;;;26.93;5.43;;;;;;;;;;5050770;28;20473;-60
2023/05/16 04:48:34;;;;;;;21.73;5.57;;;;;;;;;;5051434;28;20045;-60
2023/05/16 04:51:01;;;;;;;26.90;4.73;;;;;;;;;;5051268;28;20057;-60
2023/05/16 04:53:27;;;;;;;20.77;4.27;;;;;;;;;;5050621;28;20041;-60
2023/05/16 04:55:53;;;;;;;20.63;5.90;;;;;;;;;;5050716;28;20085;-60
2023/05/16 04:58:19;;;;;;;19.83;6.27;;;;;;;;;;5050907;28;20094;-60
2023/05/16 05:00:46;;;;;;;21.33;4.73;;;;;;;;;;5050867;28;20110;-61
2023/05/16 05:03:12;;;;;;;16.37;3.87;;;;;;;;;;5060108;28;20346;-60
2023/05/16 05:05:38;;;;;;;17.93;5.23;;;;;;;;;;5061542;28;20394;-60
2023/05/16 05:08:05;;;;;;;15.93;4.50;;;;;;;;;;5058531;28;20064;-60
2023/05/16 05:10:31;;;;;;;17.33;3.90;;;;;;;;;;5058349;28;20052;-60
2023/05/16 05:12:57;;;;;;;15.23;4.37;;;;;;;;;;5058943;28;20037;-60
2023/05/16 05:15:23;;;;;;;21.47;4.13;;;;;;;;;;5059958;28;20112;-61
2023/05/16 05:17:49;;;;;;;19.37;3.70;;;;;;;;;;5060877;28;20511;-63
2023/05/16 05:20:15;;;;;;;20.77;4.73;;;;;;;;;;5057224;28;20041;-61
2023/05/16 05:22:41;;;;;;;21.20;5.00;;;;;;;;;;5058103;28;20427;-62
2023/05/16 05:25:08;;;;;;;12.20;3.93;;;;;;;;;;5058791;28;20071;-61
2023/05/16 05:27:34;;;;;;;20.07;4.47;;;;;;;;;;5060151;28;20509;-61
2023/05/16 05:30:00;;;;;;;13.97;3.53;;;;;;;;;;5059611;28;20174;-61
2023/05/16 05:32:26;;;;;;;22.53;4.00;;;;;;;;;;5057314;28;20056;-61
2023/05/16 05:34:52;;;;;;;24.60;5.00;;;;;;;;;;5059294;28;20041;-59
2023/05/16 05:37:18;;;;;;;18.80;4.40;;;;;;;;;;5057165;28;20044;-59
2023/05/16 05:39:44;;;;;;;22.73;3.70;;;;;;;;;;5058497;28;20090;-59
2023/05/16 05:42:11;;;;;;;12.27;3.60;;;;;;;;;;5059950;28;20052;-59
2023/05/16 05:44:37;;;;;;;20.83;3.77;;;;;;;;;;5060368;28;20049;-59
2023/05/16 05:47:04;;;;;;;21.07;3.50;;;;;;;;;;5058926;28;20041;-60
2023/05/16 05:49:30;;;;;;;16.90;3.17;;;;;;;;;;5058288;28;20075;-60
2023/05/16 05:51:57;;;;;;;15.87;3.50;;;;;;;;;;5057448;28;20517;-59
2023/05/16 05:54:23;;;;;;;13.37;2.97;;;;;;;;;;5061829;28;20036;-59
2023/05/16 05:56:49;;;;;;;19.20;3.80;;;;;;;;;;5067823;28;20041;-60
2023/05/16 05:59:15;;;;;;;13.00;2.80;;;;;;;;;;5068866;28;20094;-60
2023/05/16 06:01:42;;;;;;;14.03;3.70;;;;;;;;;;5068493;28;20044;-60
2023/05/16 06:04:09;;;;;;;12.50;2.70;;;;;;;;;;5069457;28;20053;-60
2023/05/16 06:06:35;;;;;;;12.90;2.87;;;;;;;;;;5069410;28;20602;-60
2023/05/16 06:09:01;;;;;;;12.93;2.43;;;;;;;;;;5070113;28;20409;-60
2023/05/16 06:11:27;;;;;;;17.20;3.17;;;;;;;;;;5068991;28;20059;-59
2023/05/16 06:13:53;;;;;;;10.93;2.20;;;;;;;;;;5069150;28;20037;-60
2023/05/16 06:16:23;;;;;;;13.80;2.47;;;;;;;;;;5068268;28;20036;-60
2023/05/16 06:18:50;;;;;;;15.97;4.50;;;;;;;;;;5067995;28;20106;-60
2023/05/16 06:21:16;;;;;;;15.00;3.90;;;;;;;;;;5069498;28;20577;-60
2023/05/16 06:23:42;;;;;;;13.23;3.03;;;;;;;;;;5069056;28;20048;-60
2023/05/16 06:26:08;;;;;;;14.30;2.97;;;;;;;;;;5067234;28;20449;-60
2023/05/16 06:28:34;;;;;;;15.10;2.93;;;;;;;;;;5068659;28;20055;-60
2023/05/16 06:31:00;;;;;;;12.30;2.57;;;;;;;;;;5067352;28;20094;-61
2023/05/16 06:33:26;;;;;;;10.20;2.47;;;;;;;;;;5068985;28;20555;-61
2023/05/16 06:35:52;;;;;;;12.53;2.37;;;;;;;;;;5069046;28;20053;-61
2023/05/16 06:38:19;;;;;;;9.57;2.10;;;;;;;;;;5068795;28;20696;-61
2023/05/16 06:40:45;;;;;;;12.77;1.87;;;;;;;;;;5068955;28;20110;-60
2023/05/16 06:43:11;;;;;;;9.93;1.90;;;;;;;;;;5066475;28;20127;-61
2023/05/16 06:45:37;;;;;;;13.23;2.47;;;;;;;;;;5062545;28;20041;-60
2023/05/16 06:48:04;;;;;;;13.23;2.00;;;;;;;;;;5037638;28;20041;-61
2023/05/16 06:50:30;;;;;;;10.23;3.43;;;;;;;;;;5039199;28;20455;-60
2023/05/16 06:52:56;;;;;;;9.70;2.53;;;;;;;;;;5042092;28;20508;-60
2023/05/16 06:55:22;;;;;;;8.30;1.50;;;;;;;;;;5038335;28;20049;-60
2023/05/16 06:57:48;;;;;;;8.30;1.60;;;;;;;;;;5036622;28;20068;-60
2023/05/16 07:00:14;;;;;;;9.50;2.30;;;;;;;;;;5039534;28;20071;-60
2023/05/16 07:02:40;;;;;;;14.17;1.60;;;;;;;;;;5039754;28;20064;-61
2023/05/16 07:05:07;;;;;;;12.93;1.60;;;;;;;;;;5038664;28;20466;-61
2023/05/16 07:07:33;;;;;;;10.50;1.53;;;;;;;;;;5039667;28;20112;-60
2023/05/16 07:09:59;;;;;;;7.83;1.33;;;;;;;;;;5038131;28;20053;-61
2023/05/16 07:12:25;;;;;;;7.47;1.77;;;;;;;;;;5037507;28;20045;-60
2023/05/16 07:14:52;;;;;;;11.77;1.87;;;;;;;;;;5052174;28;20086;-61
2023/05/16 07:17:18;;;;;;;7.40;1.90;;;;;;;;;;5056241;28;20041;-62
2023/05/16 07:19:44;;;;;;;8.77;1.33;;;;;;;;;;5052634;28;20040;-62
2023/05/16 07:22:10;;;;;;;9.33;1.73;;;;;;;;;;5043959;28;20056;-61
2023/05/16 07:24:37;;;;;;;8.70;1.50;;;;;;;;;;5043513;28;20084;-62
2023/05/16 07:27:03;;;;;;;4.00;1.40;;;;;;;;;;5036159;28;20033;-62
2023/05/16 07:29:29;;;;;;;9.00;1.60;;;;;;;;;;5037049;28;20052;-62
2023/05/16 07:31:55;;;;;;;14.87;2.60;;;;;;;;;;5038772;28;20054;-61
2023/05/16 07:34:21;;;;;;;9.63;2.17;;;;;;;;;;5052014;28;20146;-62
2023/05/16 07:36:47;;;;;;;13.77;1.50;;;;;;;;;;5058026;28;20118;-62
2023/05/16 07:39:14;;;;;;;8.27;1.43;;;;;;;;;;5061590;28;20507;-62
2023/05/16 07:41:40;;;;;;;4.83;1.30;;;;;;;;;;5063511;28;20882;-62
2023/05/16 07:44:06;;;;;;;9.80;2.07;;;;;;;;;;5072394;28;20585;-62
2023/05/16 07:46:32;;;;;;;9.40;2.50;;;;;;;;;;5071888;28;20052;-62
2023/05/16 07:48:58;;;;;;;57.17;3.20;;;;;;;;;;5072036;28;20109;-62
2023/05/16 07:51:24;;;;;;;10.70;3.00;;;;;;;;;;5071842;28;20053;-62
2023/05/16 07:53:50;;;;;;;8.93;1.20;;;;;;;;;;5072234;28;20094;-62
2023/05/16 07:56:17;;;;;;;6.20;1.40;;;;;;;;;;5070162;28;20080;-62
2023/05/16 07:58:43;;;;;;;7.63;1.50;;;;;;;;;;5070356;28;20060;-62
2023/05/16 08:01:09;;;;;;;11.63;2.03;;;;;;;;;;5071325;28;20044;-62
2023/05/16 08:03:35;;;;;;;8.73;1.17;;;;;;;;;;5071567;28;20525;-62
2023/05/16 08:06:02;;;;;;;5.00;1.60;;;;;;;;;;5069959;28;20076;-62
2023/05/16 08:08:28;;;;;;;7.73;1.40;;;;;;;;;;5070195;28;20771;-62
2023/05/16 08:10:54;;;;;;;7.10;1.20;;;;;;;;;;5069855;28;20079;-60
2023/05/16 08:13:20;;;;;;;13.10;1.80;;;;;;;;;;5068510;28;20109;-60
2023/05/16 08:15:46;;;;;;;10.53;1.60;;;;;;;;;;5068992;28;20040;-60
2023/05/16 08:18:13;;;;;;;10.43;1.70;;;;;;;;;;5069340;28;20040;-60
2023/05/16 08:20:40;;;;;;;9.30;2.03;;;;;;;;;;5070384;28;20105;-60
2023/05/16 08:23:07;;;;;;;6.23;1.63;;;;;;;;;;5069921;28;20044;-60
2023/05/16 08:25:33;;;;;;;10.80;1.90;;;;;;;;;;5069851;28;20041;-60
2023/05/16 08:28:00;;;;;;;7.60;1.40;;;;;;;;;;5071564;28;20068;-60
2023/05/16 08:30:27;;;;;;;10.27;2.10;;;;;;;;;;5071259;28;20047;-61
2023/05/16 08:32:53;;;;;;;7.30;1.47;;;;;;;;;;5070102;28;20052;-61
2023/05/16 08:35:19;;;;;;;9.00;1.97;;;;;;;;;;5069902;28;20084;-60
2023/05/16 08:37:45;;;;;;;5.37;1.90;;;;;;;;;;5070076;28;20142;-61
2023/05/16 08:40:13;;;;;;;12.27;2.47;;;;;;;;;;5069865;28;20498;-61
2023/05/16 08:42:39;;;;;;;10.47;2.20;;;;;;;;;;5069743;28;20052;-61
2023/05/16 08:45:06;;;;;;;7.93;1.40;;;;;;;;;;5049878;28;20384;-61
2023/05/16 08:47:35;;;;;;;9.90;1.67;;;;;;;;;;5049872;28;20056;-61
2023/05/16 08:50:03;;;;;;;7.37;1.70;;;;;;;;;;5049855;28;20450;-60
2023/05/16 08:52:30;;;;;;;6.53;1.33;;;;;;;;;;5049655;28;20064;-61
2023/05/16 08:55:04;;;;;;;6.40;1.40;;;;;;;;;;5050060;28;20052;-61
2023/05/16 08:57:31;;;;;;;11.23;1.50;;;;;;;;;;5049767;28;20051;-61
2023/05/16 08:59:58;;;;;;;7.00;1.63;;;;;;;;;;5050033;28;20515;-61
2023/05/16 09:02:24;;;;;;;8.63;1.30;;;;;;;;;;5049580;28;20049;-61
2023/05/16 09:04:51;;;;;;;6.37;1.63;;;;;;;;;;5049620;28;20084;-62
2023/05/16 09:07:17;;;;;;;7.67;1.83;;;;;;;;;;5049530;28;20044;-62
2023/05/16 09:09:43;;;;;;;14.33;2.20;;;;;;;;;;5049625;28;20077;-62
2023/05/16 09:12:09;;;;;;;7.60;1.30;;;;;;;;;;5049829;28;20056;-62
2023/05/16 09:14:35;;;;;;;6.93;1.30;;;;;;;;;;5049460;28;20045;-62
2023/05/16 09:17:04;;;;;;;7.43;1.20;;;;;;;;;;5049531;28;20045;-62
2023/05/16 09:19:40;;;;;;;8.17;1.33;;;;;;;;;;5049060;28;20048;-63
2023/05/16 09:22:09;;;;;;;7.60;1.80;;;;;;;;;;5049200;28;20074;-62
2023/05/16 09:24:38;;;;;;;7.20;1.80;;;;;;;;;;5048057;28;20091;-62
2023/05/16 09:27:12;;;;;;;5.70;1.60;;;;;;;;;;5055452;28;20450;-62
2023/05/16 09:29:38;;;;;;;;;;;;;;;;;;5058935;28;20044;-62
2023/05/16 09:32:05;;;;;;;9.50;1.27;;;;;;;;;;5022476;28;1083389;-63
2023/05/16 09:34:31;;;;;;;5.87;1.40;;;;;;;;;;5058982;28;20534;-62
2023/05/16 09:36:57;;;;;;;6.63;1.23;;;;;;;;;;5059421;28;20501;-63
2023/05/16 09:39:27;;;;;;;7.13;1.23;;;;;;;;;;5059342;28;20048;-63
2023/05/16 09:41:53;;;;;;;6.10;1.17;;;;;;;;;;5059530;28;20049;-63
2023/05/16 09:44:19;;;;;;;4.60;1.37;;;;;;;;;;5061303;28;20506;-61
2023/05/16 09:46:45;;;;;;;7.97;1.30;;;;;;;;;;5070647;28;20048;-61
2023/05/16 09:49:11;;;;;;;17.10;4.53;;;;;;;;;;5069568;28;20041;-61
2023/05/16 09:51:38;;;;;;;5.30;1.20;;;;;;;;;;5069850;28;20041;-61
2023/05/16 09:54:07;;;;;;;5.90;1.27;;;;;;;;;;5061338;28;20098;-62
2023/05/16 09:56:33;;;;;;;6.20;1.50;;;;;;;;;;5049205;28;20041;-61
2023/05/16 09:58:59;;;;;;;7.93;1.27;;;;;;;;;;5034748;28;20052;-61
2023/05/16 10:01:25;;;;;;;10.23;1.53;;;;;;;;;;5028530;28;20049;-61
2023/05/16 10:03:51;;;;;;;7.90;1.63;;;;;;;;;;5030023;28;20614;-61
2023/05/16 10:06:18;;;;;;;5.83;1.50;;;;;;;;;;5029486;28;20053;-61
2023/05/16 10:08:45;;;;;;;11.07;1.97;;;;;;;;;;5029825;28;20136;-61
2023/05/16 10:11:11;;;;;;;5.53;1.60;;;;;;;;;;5029754;28;20407;-61
2023/05/16 10:13:38;;;;;;;9.83;1.70;;;;;;;;;;5029780;28;20596;-60
2023/05/16 10:16:10;;;;;;;7.23;1.40;;;;;;;;;;5029925;28;20041;-61
2023/05/16 10:18:37;;;;;;;7.00;1.47;;;;;;;;;;5028723;28;20504;-61
2023/05/16 10:21:13;;;;;;;7.83;1.60;;;;;;;;;;5029204;28;20041;-61
2023/05/16 10:23:42;;;;;;;5.90;1.53;;;;;;;;;;5029701;28;20159;-61
2023/05/16 10:26:09;;;;;;;6.97;1.40;;;;;;;;;;5029311;28;20056;-61
2023/05/16 10:28:39;;;;;;;8.73;1.40;;;;;;;;;;5029276;28;20800;-61
2023/05/16 10:31:05;;;;;;;5.00;1.80;;;;;;;;;;5038065;28;20052;-61
2023/05/16 10:33:31;;;;;;;4.80;1.23;;;;;;;;;;5068900;28;20130;-61
2023/05/16 10:35:57;;;;;;;5.03;1.43;;;;;;;;;;5069073;28;20056;-62
2023/05/16 10:38:24;;;;;;;3.63;1.17;;;;;;;;;;5069164;28;20037;-62
2023/05/16 10:40:50;;;;;;;7.23;1.63;;;;;;;;;;5069238;28;20074;-62
2023/05/16 10:43:24;;;;;;;5.27;1.10;;;;;;;;;;5069081;28;20052;-62
2023/05/16 10:45:54;;;;;;;6.10;1.17;;;;;;;;;;5068581;28;20045;-62
2023/05/16 10:48:28;;;;;;;9.00;1.83;;;;;;;;;;5069190;28;20127;-62
2023/05/16 10:50:54;;;;;;;8.17;1.30;;;;;;;;;;5063418;28;20072;-62
2023/05/16 10:53:30;;;;;;;5.10;1.30;;;;;;;;;;5060138;28;20145;-62
2023/05/16 10:55:59;;;;;;;8.93;1.93;;;;;;;;;;5055991;28;20063;-62
2023/05/16 10:58:34;;;;;;;5.60;1.27;;;;;;;;;;5056590;28;20048;-61
2023/05/16 11:01:19;;;;;;;5.10;1.37;;;;;;;;;;5059833;28;20759;-60
2023/05/16 11:04:03;;;;;;;4.10;1.40;;;;;;;;;;5049024;28;20049;-61
2023/05/16 11:06:29;;;;;;;5.20;1.57;;;;;;;;;;5053095;28;20075;-61
2023/05/16 11:09:10;;;;;;;5.53;2.00;;;;;;;;;;5058035;28;20049;-61
2023/05/16 11:11:46;;;;;;;4.17;1.63;;;;;;;;;;5048824;28;20045;-61
2023/05/16 11:14:22;;;;;;;8.40;1.43;;;;;;;;;;5048750;28;20119;-61
2023/05/16 11:16:52;;;;;;;5.23;1.20;;;;;;;;;;5047705;28;20049;-61
2023/05/16 11:19:34;;;;;;;6.17;1.57;;;;;;;;;;5053407;28;20110;-61
2023/05/16 11:22:10;;;;;;;9.20;2.38;;;;;;;;;;5067842;28;20668;-61
2023/05/16 11:24:37;;;;;;;6.50;2.00;;;;;;;;;;5068699;28;20057;-62
2023/05/16 11:27:04;;;;;;;6.47;1.40;;;;;;;;;;5068344;28;20044;-61
2023/05/16 11:29:36;;;;;;;4.03;1.30;;;;;;;;;;5068445;28;20510;-61
2023/05/16 11:32:04;;;;;;;5.57;1.60;;;;;;;;;;5068135;28;20056;-62
2023/05/16 11:34:31;;;;;;;6.87;1.77;;;;;;;;;;5068265;28;20147;-63
2023/05/16 11:36:59;;;;;;;6.63;2.17;;;;;;;;;;5067769;28;20559;-62
2023/05/16 11:39:25;;;;;;;4.60;1.70;;;;;;;;;;5068046;28;20048;-62
2023/05/16 11:41:51;;;;;;;7.43;1.77;;;;;;;;;;5068357;28;20127;-62
2023/05/16 11:44:17;;;;;;;5.70;1.67;;;;;;;;;;5067934;28;20075;-62
2023/05/16 11:46:43;;;;;;;7.03;2.20;;;;;;;;;;5068378;28;20032;-62
2023/05/16 11:49:09;;;;;;;8.03;2.10;;;;;;;;;;5068171;28;20110;-62
2023/05/16 11:51:45;;;;;;;6.83;1.33;;;;;;;;;;5068028;28;20049;-62
2023/05/16 11:54:11;;;;;;;4.57;1.67;;;;;;;;;;5068523;28;20127;-62
2023/05/16 11:56:39;;;;;;;8.47;1.50;;;;;;;;;;5068330;28;20136;-62
2023/05/16 11:59:05;;;;;;;5.10;1.63;;;;;;;;;;5067859;28;20040;-62
2023/05/16 12:01:34;;;;;;;6.93;1.83;;;;;;;;;;5068046;28;20091;-61
2023/05/16 12:04:00;;;;;;;8.13;1.87;;;;;;;;;;5064972;28;20403;-61
2023/05/16 12:06:28;;;;;;;7.30;2.00;;;;;;;;;;5055882;28;20048;-61
2023/05/16 12:08:54;;;;;;;7.90;1.90;;;;;;;;;;5063430;28;20135;-61
2023/05/16 12:11:20;;;;;;;8.17;1.63;;;;;;;;;;5068117;28;20187;-61
2023/05/16 12:13:49;;;;;;;7.90;1.60;;;;;;;;;;5067793;28;20129;-61
2023/05/16 12:16:15;;;;;;;7.63;1.43;;;;;;;;;;5067909;28;20052;-60
2023/05/16 12:18:42;;;;;;;8.07;2.20;;;;;;;;;;5068095;28;20040;-60
2023/05/16 12:21:08;;;;;;;7.60;1.53;;;;;;;;;;5067798;28;20052;-61
2023/05/16 12:23:34;;;;;;;8.57;2.10;;;;;;;;;;5068842;28;20055;-61
2023/05/16 12:26:05;;;;;;;7.03;1.67;;;;;;;;;;5071443;28;20037;-61
2023/05/16 12:28:33;;;;;;;8.87;1.80;;;;;;;;;;5068672;28;20053;-61
2023/05/16 12:30:59;;;;;;;6.10;1.90;;;;;;;;;;5050141;28;20053;-63
2023/05/16 12:33:25;;;;;;;6.43;1.97;;;;;;;;;;5050040;28;20222;-61
2023/05/16 12:35:52;;;;;;;6.67;1.50;;;;;;;;;;5050665;28;20123;-61
2023/05/16 12:38:19;;;;;;;7.07;1.47;;;;;;;;;;5050266;28;20044;-61
2023/05/16 12:40:45;;;;;;;6.77;1.67;;;;;;;;;;5050080;28;20750;-61
2023/05/16 12:43:30;;;;;;;7.40;1.80;;;;;;;;;;5050402;28;20045;-61
2023/05/16 12:45:57;;;;;;;6.07;1.30;;;;;;;;;;5050212;28;20407;-61
2023/05/16 12:48:24;;;;;;;4.87;1.53;;;;;;;;;;5051175;28;20507;-61
2023/05/16 12:50:50;;;;;;;6.77;1.60;;;;;;;;;;5050689;28;20132;-61
2023/05/16 12:53:17;;;;;;;6.73;1.70;;;;;;;;;;5051309;28;20475;-61
2023/05/16 12:55:43;;;;;;;7.63;1.60;;;;;;;;;;5050702;28;20056;-61
2023/05/16 12:58:11;;;;;;;5.63;1.83;;;;;;;;;;5060711;28;20082;-61
2023/05/16 13:00:37;;;;;;;7.20;1.90;;;;;;;;;;5059292;28;20044;-61
2023/05/16 13:03:04;;;;;;;6.83;1.77;;;;;;;;;;5055014;28;20067;-61
2023/05/16 13:05:31;;;;;;;7.77;2.20;;;;;;;;;;5060651;28;20041;-61
2023/05/16 13:07:57;;;;;;;4.43;1.80;;;;;;;;;;5050797;28;20048;-61
2023/05/16 13:10:24;;;;;;;4.90;1.97;;;;;;;;;;5048492;28;20098;-61
2023/05/16 13:12:50;;;;;;;8.57;2.40;;;;;;;;;;5050723;28;20045;-61
2023/05/16 13:15:16;;;;;;;6.23;2.77;;;;;;;;;;5059790;28;20041;-61
2023/05/16 13:17:43;;;;;;;8.87;1.90;;;;;;;;;;5052843;28;20037;-61
2023/05/16 13:20:12;;;;;;;6.10;1.93;;;;;;;;;;5051328;28;20072;-62
2023/05/16 13:22:42;;;;;;;7.23;2.73;;;;;;;;;;5054835;28;20102;-61
2023/05/16 13:25:09;;;;;;;8.27;3.13;;;;;;;;;;5048944;28;20102;-61
2023/05/16 13:27:35;;;;;;;6.30;2.40;;;;;;;;;;5062746;28;20598;-61
2023/05/16 13:30:02;;;;;;;6.73;2.50;;;;;;;;;;5065489;28;20036;-61
2023/05/16 13:32:28;;;;;;;9.43;2.83;;;;;;;;;;5057766;28;20122;-61
2023/05/16 13:34:54;;;;;;;8.80;2.87;;;;;;;;;;5059220;28;20044;-61
2023/05/16 13:37:23;;;;;;;6.60;2.60;;;;;;;;;;5056235;28;20052;-61
2023/05/16 13:39:49;;;;;;;12.53;3.43;;;;;;;;;;5052568;28;20052;-61
2023/05/16 13:42:15;;;;;;;8.60;2.57;;;;;;;;;;5049621;28;20515;-61
2023/05/16 13:44:42;;;;;;;8.30;2.27;;;;;;;;;;5050126;28;20052;-61
2023/05/16 13:47:08;;;;;;;9.50;2.77;;;;;;;;;;5050343;28;20103;-61
2023/05/16 13:49:34;;;;;;;7.43;3.13;;;;;;;;;;5049784;28;20084;-61
2023/05/16 13:52:00;;;;;;;6.73;2.60;;;;;;;;;;5050069;28;20041;-61
2023/05/16 13:54:26;;;;;;;6.33;2.60;;;;;;;;;;5065118;28;20626;-61
2023/05/16 13:56:53;;;;;;;8.50;3.00;;;;;;;;;;5068986;28;20048;-61
2023/05/16 13:59:19;;;;;;;7.47;3.17;;;;;;;;;;5056658;28;20151;-62
2023/05/16 14:01:45;;;;;;;6.10;2.70;;;;;;;;;;5058934;28;20487;-62
2023/05/16 14:04:11;;;;;;;5.83;2.77;;;;;;;;;;5057587;28;20044;-62
2023/05/16 14:06:37;;;;;;;6.20;2.67;;;;;;;;;;5059993;28;20127;-63
2023/05/16 14:09:03;;;;;;;7.10;3.07;;;;;;;;;;5062087;28;20128;-62
2023/05/16 14:11:29;;;;;;;5.97;2.80;;;;;;;;;;5052253;28;20049;-62
2023/05/16 14:13:55;;;;;;;8.70;3.30;;;;;;;;;;5051786;28;20053;-61
2023/05/16 14:16:21;;;;;;;7.23;3.60;;;;;;;;;;5049285;28;20052;-61
2023/05/16 14:18:48;;;;;;;6.27;2.90;;;;;;;;;;5049633;28;20396;-62
2023/05/16 14:21:14;;;;;;;6.60;2.70;;;;;;;;;;5049324;28;20403;-61
2023/05/16 14:23:40;;;;;;;5.97;2.63;;;;;;;;;;5049593;28;20053;-61
2023/05/16 14:26:06;;;;;;;7.90;2.57;;;;;;;;;;5049626;28;20411;-61
2023/05/16 14:28:32;;;;;;;7.87;3.43;;;;;;;;;;5056395;28;20041;-61
2023/05/16 14:31:01;;;;;;;7.93;3.63;;;;;;;;;;5060626;28;20142;-61
2023/05/16 14:33:27;;;;;;;10.90;3.43;;;;;;;;;;5068937;28;20118;-61
2023/05/16 14:35:53;;;;;;;9.30;3.03;;;;;;;;;;5058537;28;20041;-61